Terminal Aerodrome Forecast
Issued by NWS Wilmington, OH

Current Version | Previous Version | Graphics & Text | Print | Product List | Glossary On
Versions: 1 2 3 4 5 6 7 8 9 10 11 12 13 14 15 16 17 18 19 20 21 22 23
000
FTUS41 KILN 290052 AAB
TAFILN
TAF AMD
KILN 290052Z 2901/2924 02012G20KT 5SM -TSRA OVC040CB
      TEMPO 2901/2903 1SM TSRA OVC025CB
     FM290400 03005KT P6SM SCT080 BKN250
     FM291400 04006KT P6SM SCT040=

USA.gov is the U.S. government's official web portal to all federal, state and local government web resources and services.